Terminal Aerodrome Forecast
Issued by NWS

Home | Current Version | Previous Version | Text Only | Print | Product List | Glossary On
Versions: 1 2 3 4 5 6 7 8 9 10 11 12 13
000
FTUS43 KEAX 281100
TAFSTJ
TAF
KSTJ 281120Z 2812/2912 21010KT P6SM SKC
     FM281400 26014KT P6SM VCTS SCT050CB
     FM281600 31012G21KT P6SM SCT060
     FM282200 32008KT P6SM SKC=

USA.gov is the U.S. government's official web portal to all federal, state and local government web resources and services.